Time;durP1;ratioP1;P1;durP2;ratioP2;P2;SDS_P1;SDS_P2;PMS_P1;PMS_P2;Temp;Humidity;BMP_temperature;BMP_pressure;BME280_temperature;BME280_humidity;BME280_pressure;Samples;Min_cycle;Max_cycle;Signal;HPM_P1;HPM_P2
2024/01/03 00:01:04;;;;;;;55.60;1.80;;;;;;;;;;5052181;28;20458;-73
2024/01/03 00:03:31;;;;;;;55.47;2.00;;;;;;;;;;5052651;28;20475;-73
2024/01/03 00:05:59;;;;;;;55.37;1.87;;;;;;;;;;5052692;28;20453;-74
2024/01/03 00:08:26;;;;;;;55.27;2.20;;;;;;;;;;5052690;28;20480;-74
2024/01/03 00:10:55;;;;;;;55.30;1.90;;;;;;;;;;5052499;28;20449;-74
2024/01/03 00:13:40;;;;;;;55.40;1.73;;;;;;;;;;5049057;28;20498;-73
2024/01/03 00:16:19;;;;;;;55.70;2.00;;;;;;;;;;5045466;28;20449;-73
2024/01/03 00:18:50;;;;;;;55.07;2.07;;;;;;;;;;5052423;28;20826;-74
2024/01/03 00:21:19;;;;;;;55.50;2.00;;;;;;;;;;5052282;28;20486;-73
2024/01/03 00:23:50;;;;;;;55.40;1.80;;;;;;;;;;5052241;28;20526;-71
2024/01/03 00:26:17;;;;;;;55.37;1.80;;;;;;;;;;5052449;28;20458;-73
2024/01/03 00:28:44;;;;;;;55.17;1.90;;;;;;;;;;5052233;28;20450;-74
2024/01/03 00:31:11;;;;;;;55.43;2.10;;;;;;;;;;5052224;28;20455;-74
2024/01/03 00:33:41;;;;;;;55.03;1.80;;;;;;;;;;5051951;28;20468;-74
2024/01/03 00:36:09;;;;;;;55.17;2.20;;;;;;;;;;5051881;28;20462;-73
2024/01/03 00:38:38;;;;;;;55.50;2.03;;;;;;;;;;5051257;28;20450;-73
2024/01/03 00:41:08;;;;;;;54.80;2.00;;;;;;;;;;5049155;28;20497;-74
2024/01/03 00:43:35;;;;;;;55.60;1.90;;;;;;;;;;5051789;28;20474;-74
2024/01/03 00:46:02;;;;;;;54.93;1.70;;;;;;;;;;5051615;28;20454;-73
2024/01/03 00:48:29;;;;;;;55.60;1.70;;;;;;;;;;5051691;28;20457;-74
2024/01/03 00:50:58;;;;;;;55.60;1.80;;;;;;;;;;5051946;28;20442;-74
2024/01/03 00:53:25;;;;;;;55.40;1.83;;;;;;;;;;5051810;28;20982;-74
2024/01/03 00:55:53;;;;;;;55.27;2.10;;;;;;;;;;5051597;28;20448;-74
2024/01/03 00:58:20;;;;;;;55.27;1.80;;;;;;;;;;5051875;28;20449;-74
2024/01/03 01:00:47;;;;;;;55.37;1.90;;;;;;;;;;5051619;28;20456;-74
2024/01/03 01:03:15;;;;;;;55.13;1.67;;;;;;;;;;5051419;28;20493;-74
2024/01/03 01:05:43;;;;;;;55.37;1.90;;;;;;;;;;5051569;28;20944;-74
2024/01/03 01:08:11;;;;;;;55.50;2.10;;;;;;;;;;5051855;28;20454;-74
2024/01/03 01:10:38;;;;;;;55.27;2.00;;;;;;;;;;5051463;28;20450;-74
2024/01/03 01:13:05;;;;;;;55.50;1.80;;;;;;;;;;5050402;28;20466;-74
2024/01/03 01:15:32;;;;;;;55.40;1.73;;;;;;;;;;5051229;28;20809;-73
2024/01/03 01:17:59;;;;;;;55.57;1.90;;;;;;;;;;5051373;28;20450;-74
2024/01/03 01:20:26;;;;;;;55.07;1.70;;;;;;;;;;5051536;28;20478;-74
2024/01/03 01:22:53;;;;;;;55.60;2.03;;;;;;;;;;5051170;28;20503;-74
2024/01/03 01:25:22;;;;;;;55.60;1.80;;;;;;;;;;5051128;28;20449;-74
2024/01/03 01:27:49;;;;;;;55.37;2.03;;;;;;;;;;5051348;28;20453;-74
2024/01/03 01:30:16;;;;;;;55.07;1.90;;;;;;;;;;5051625;28;20457;-74
2024/01/03 01:32:43;;;;;;;55.67;1.93;;;;;;;;;;5051234;28;20484;-74
2024/01/03 01:35:10;;;;;;;55.17;1.83;;;;;;;;;;5051180;28;20460;-74
2024/01/03 01:37:37;;;;;;;55.27;1.63;;;;;;;;;;5051135;28;20454;-74
2024/01/03 01:40:05;;;;;;;55.23;2.00;;;;;;;;;;5051393;28;20446;-74
2024/01/03 01:42:33;;;;;;;55.40;1.83;;;;;;;;;;5050855;28;20498;-74
2024/01/03 01:45:01;;;;;;;55.17;2.00;;;;;;;;;;5051008;28;20442;-74
2024/01/03 01:47:28;;;;;;;55.37;2.00;;;;;;;;;;5051266;28;21000;-74
2024/01/03 01:49:55;;;;;;;55.23;1.83;;;;;;;;;;5051000;28;20447;-74
2024/01/03 01:52:23;;;;;;;55.07;1.80;;;;;;;;;;5051242;28;20445;-74
2024/01/03 01:54:50;;;;;;;55.47;1.90;;;;;;;;;;5053133;28;20529;-74
2024/01/03 01:57:17;;;;;;;55.43;2.10;;;;;;;;;;5063308;28;20442;-74
2024/01/03 01:59:47;;;;;;;55.67;1.70;;;;;;;;;;5063192;28;20496;-74
2024/01/03 02:02:14;;;;;;;54.87;1.70;;;;;;;;;;5063521;28;20488;-74
2024/01/03 02:04:42;;;;;;;55.63;1.80;;;;;;;;;;5062197;28;20541;-74
2024/01/03 02:07:09;;;;;;;55.20;1.70;;;;;;;;;;5052431;28;20458;-74
2024/01/03 02:09:36;;;;;;;55.83;2.10;;;;;;;;;;5050662;28;20447;-74
2024/01/03 02:12:04;;;;;;;55.30;1.70;;;;;;;;;;5050931;28;20449;-74
2024/01/03 02:14:31;;;;;;;55.40;2.30;;;;;;;;;;5048064;28;20947;-74
2024/01/03 02:16:59;;;;;;;55.37;2.00;;;;;;;;;;5050229;28;20822;-74
2024/01/03 02:19:26;;;;;;;55.50;2.00;;;;;;;;;;5050721;28;20456;-74
2024/01/03 02:21:56;;;;;;;55.03;1.90;;;;;;;;;;5050269;28;21092;-74
2024/01/03 02:24:23;;;;;;;55.60;1.90;;;;;;;;;;5051201;28;20820;-74
2024/01/03 02:26:51;;;;;;;55.37;1.90;;;;;;;;;;5054297;28;20461;-74
2024/01/03 02:29:18;;;;;;;55.40;1.70;;;;;;;;;;5054704;28;20819;-74
2024/01/03 02:31:45;;;;;;;55.37;1.70;;;;;;;;;;5052189;28;20528;-74
2024/01/03 02:34:12;;;;;;;55.40;1.90;;;;;;;;;;5054345;28;20462;-74
2024/01/03 02:36:39;;;;;;;55.23;1.90;;;;;;;;;;5054227;28;20438;-74
2024/01/03 02:39:08;;;;;;;54.80;1.80;;;;;;;;;;5054262;28;20460;-74
2024/01/03 02:41:35;;;;;;;55.37;1.90;;;;;;;;;;5053456;28;20450;-74
2024/01/03 02:44:02;;;;;;;55.00;1.90;;;;;;;;;;5053751;28;20470;-74
2024/01/03 02:46:29;;;;;;;55.50;1.70;;;;;;;;;;5053968;28;20939;-74
2024/01/03 02:48:56;;;;;;;55.40;2.00;;;;;;;;;;5054360;28;20446;-74
2024/01/03 02:51:23;;;;;;;55.13;1.73;;;;;;;;;;5054089;28;20461;-74
2024/01/03 02:53:51;;;;;;;55.60;1.80;;;;;;;;;;5053660;28;20842;-74
2024/01/03 02:56:19;;;;;;;55.23;2.00;;;;;;;;;;5054076;28;20460;-74
2024/01/03 02:58:46;;;;;;;55.20;1.60;;;;;;;;;;5053843;28;20967;-74
2024/01/03 03:01:13;;;;;;;55.60;1.90;;;;;;;;;;5053972;28;20462;-74
2024/01/03 03:03:41;;;;;;;55.40;2.00;;;;;;;;;;5053880;28;20497;-74
2024/01/03 03:06:08;;;;;;;55.50;2.00;;;;;;;;;;5053722;28;20549;-74
2024/01/03 03:08:35;;;;;;;55.57;2.10;;;;;;;;;;5053859;28;20453;-74
2024/01/03 03:11:04;;;;;;;55.60;2.17;;;;;;;;;;5053606;28;20643;-74
2024/01/03 03:13:32;;;;;;;55.47;2.00;;;;;;;;;;5053459;28;20466;-74
2024/01/03 03:15:59;;;;;;;55.60;1.80;;;;;;;;;;5053253;28;20458;-74
2024/01/03 03:18:27;;;;;;;55.30;2.03;;;;;;;;;;5053816;28;20923;-74
2024/01/03 03:20:54;;;;;;;55.17;1.90;;;;;;;;;;5053612;28;20503;-74
2024/01/03 03:23:21;;;;;;;54.97;2.00;;;;;;;;;;5053168;28;20490;-74
2024/01/03 03:25:48;;;;;;;55.40;2.00;;;;;;;;;;5052860;28;20452;-74
2024/01/03 03:28:15;;;;;;;55.30;2.10;;;;;;;;;;5053677;28;20461;-74
2024/01/03 03:30:43;;;;;;;55.67;2.07;;;;;;;;;;5053374;28;20456;-74
2024/01/03 03:33:11;;;;;;;55.43;1.77;;;;;;;;;;5053318;28;20460;-74
2024/01/03 03:35:38;;;;;;;55.60;1.93;;;;;;;;;;5052678;28;20448;-74
2024/01/03 03:38:05;;;;;;;55.50;2.10;;;;;;;;;;5052961;28;20464;-74
2024/01/03 03:40:32;;;;;;;55.40;1.97;;;;;;;;;;5052883;28;20457;-74
2024/01/03 03:42:59;;;;;;;55.40;1.80;;;;;;;;;;5052993;28;20931;-74
2024/01/03 03:45:26;;;;;;;55.07;1.80;;;;;;;;;;5052763;28;20454;-74
2024/01/03 03:47:55;;;;;;;55.47;2.10;;;;;;;;;;5053429;28;20447;-74
2024/01/03 03:50:22;;;;;;;55.50;2.20;;;;;;;;;;5052993;28;20459;-74
2024/01/03 03:52:49;;;;;;;55.40;2.03;;;;;;;;;;5052724;28;20851;-74
2024/01/03 03:55:17;;;;;;;55.50;2.20;;;;;;;;;;5052453;28;20454;-74
2024/01/03 03:57:44;;;;;;;55.37;2.30;;;;;;;;;;5052660;28;20457;-74
2024/01/03 04:00:11;;;;;;;55.47;2.03;;;;;;;;;;5052800;28;20961;-74
2024/01/03 04:02:38;;;;;;;55.47;2.20;;;;;;;;;;5052654;28;21005;-74
2024/01/03 04:05:07;;;;;;;55.30;1.90;;;;;;;;;;5052513;28;20551;-73
2024/01/03 04:07:35;;;;;;;55.30;2.20;;;;;;;;;;5052782;28;20456;-74
2024/01/03 04:10:02;;;;;;;55.37;1.90;;;;;;;;;;5052452;28;20924;-74
2024/01/03 04:12:29;;;;;;;55.40;2.20;;;;;;;;;;5052508;28;20995;-74
2024/01/03 04:14:56;;;;;;;55.40;2.30;;;;;;;;;;5052519;28;20951;-76
2024/01/03 04:17:23;;;;;;;55.67;2.10;;;;;;;;;;5052489;28;20952;-74
2024/01/03 04:19:50;;;;;;;55.50;1.90;;;;;;;;;;5052457;28;20457;-74
2024/01/03 04:22:18;;;;;;;55.47;2.20;;;;;;;;;;5051676;28;20453;-74
2024/01/03 04:24:45;;;;;;;55.27;2.07;;;;;;;;;;5052094;28;20451;-74
2024/01/03 04:27:13;;;;;;;55.67;2.00;;;;;;;;;;5052540;28;20460;-74
2024/01/03 04:29:40;;;;;;;56.47;2.37;;;;;;;;;;5052290;28;20626;-74
2024/01/03 04:32:07;;;;;;;55.17;2.03;;;;;;;;;;5051907;28;20450;-74
2024/01/03 04:34:36;;;;;;;55.30;2.07;;;;;;;;;;5051764;28;20886;-74
2024/01/03 04:37:04;;;;;;;55.17;1.87;;;;;;;;;;5052194;28;20454;-74
2024/01/03 04:39:32;;;;;;;55.20;1.90;;;;;;;;;;5052267;28;20455;-74
2024/01/03 04:41:59;;;;;;;55.30;2.07;;;;;;;;;;5051811;28;20460;-74
2024/01/03 04:44:26;;;;;;;55.27;1.70;;;;;;;;;;5051379;28;20490;-74
2024/01/03 04:46:53;;;;;;;55.37;1.93;;;;;;;;;;5052168;28;20452;-74
2024/01/03 04:49:20;;;;;;;55.37;1.90;;;;;;;;;;5051365;28;20466;-74
2024/01/03 04:51:47;;;;;;;55.33;2.10;;;;;;;;;;5051750;28;20452;-75
2024/01/03 04:54:14;;;;;;;55.23;1.80;;;;;;;;;;5051718;28;21029;-74
2024/01/03 04:56:43;;;;;;;55.33;1.90;;;;;;;;;;5051747;28;20454;-74
2024/01/03 04:59:10;;;;;;;55.40;1.80;;;;;;;;;;5051934;28;20460;-74
2024/01/03 05:01:38;;;;;;;55.50;2.10;;;;;;;;;;5051447;28;20455;-74
2024/01/03 05:04:05;;;;;;;55.00;1.67;;;;;;;;;;5050992;28;20584;-74
2024/01/03 05:06:32;;;;;;;55.03;2.07;;;;;;;;;;5051228;28;20951;-74
2024/01/03 05:08:59;;;;;;;55.27;1.80;;;;;;;;;;5051441;28;20456;-74
2024/01/03 05:11:26;;;;;;;55.30;2.20;;;;;;;;;;5051446;28;20449;-74
2024/01/03 05:13:55;;;;;;;55.07;1.77;;;;;;;;;;5051110;28;20978;-74
2024/01/03 05:16:22;;;;;;;55.23;1.87;;;;;;;;;;5051121;28;20457;-74
2024/01/03 05:18:49;;;;;;;55.27;1.80;;;;;;;;;;5051521;28;20533;-74
2024/01/03 05:21:16;;;;;;;55.40;2.10;;;;;;;;;;5051550;28;20449;-74
2024/01/03 05:23:44;;;;;;;55.63;1.80;;;;;;;;;;5051325;28;20840;-74
2024/01/03 05:26:11;;;;;;;55.60;1.77;;;;;;;;;;5051218;28;20458;-74
2024/01/03 05:28:38;;;;;;;55.07;2.00;;;;;;;;;;5051313;28;20474;-74
2024/01/03 05:31:06;;;;;;;55.27;2.10;;;;;;;;;;5050985;28;20458;-74
2024/01/03 05:33:33;;;;;;;55.13;1.90;;;;;;;;;;5051021;28;21013;-72
2024/01/03 05:36:00;;;;;;;55.37;2.20;;;;;;;;;;5051109;28;20482;-74
2024/01/03 05:38:28;;;;;;;55.27;1.80;;;;;;;;;;5051158;28;20447;-74
2024/01/03 05:40:55;;;;;;;55.37;2.10;;;;;;;;;;5050477;28;20454;-74
2024/01/03 05:43:23;;;;;;;55.33;1.93;;;;;;;;;;5050616;28;20495;-74
2024/01/03 05:45:50;;;;;;;55.37;2.17;;;;;;;;;;5050906;28;20542;-72
2024/01/03 05:48:18;;;;;;;55.60;1.80;;;;;;;;;;5050976;28;20441;-74
2024/01/03 05:50:45;;;;;;;55.57;1.77;;;;;;;;;;5051154;28;20451;-74
2024/01/03 05:53:12;;;;;;;55.07;1.93;;;;;;;;;;5050821;28;20458;-74
2024/01/03 05:55:39;;;;;;;55.30;2.00;;;;;;;;;;5050678;28;20457;-74
2024/01/03 05:58:07;;;;;;;55.37;1.93;;;;;;;;;;5050925;28;20472;-74
2024/01/03 06:00:34;;;;;;;55.60;1.90;;;;;;;;;;5053696;28;20447;-74
2024/01/03 06:03:01;;;;;;;55.10;1.90;;;;;;;;;;5054842;28;20518;-74
2024/01/03 06:05:29;;;;;;;55.40;1.87;;;;;;;;;;5054849;28;20964;-74
2024/01/03 06:07:56;;;;;;;55.23;1.80;;;;;;;;;;5054944;28;20450;-74
2024/01/03 06:10:23;;;;;;;55.50;2.10;;;;;;;;;;5055148;28;20443;-74
2024/01/03 06:12:50;;;;;;;55.30;1.90;;;;;;;;;;5054771;28;20472;-74
2024/01/03 06:15:17;;;;;;;55.20;1.73;;;;;;;;;;5054795;28;20462;-74
2024/01/03 06:17:44;;;;;;;55.57;1.80;;;;;;;;;;5054768;28;20459;-74
2024/01/03 06:20:12;;;;;;;55.40;1.70;;;;;;;;;;5054401;28;20818;-74
2024/01/03 06:22:40;;;;;;;54.87;1.67;;;;;;;;;;5053277;28;20472;-73
2024/01/03 06:25:07;;;;;;;55.23;1.50;;;;;;;;;;5053443;28;20516;-72
2024/01/03 06:27:34;;;;;;;55.03;1.60;;;;;;;;;;5054864;28;20542;-73
2024/01/03 06:30:02;;;;;;;55.40;2.00;;;;;;;;;;5054516;28;20538;-72
2024/01/03 06:32:29;;;;;;;55.50;1.80;;;;;;;;;;5054143;28;20476;-73
2024/01/03 06:34:56;;;;;;;55.30;2.03;;;;;;;;;;5053948;28;20446;-73
2024/01/03 06:37:23;;;;;;;55.43;1.80;;;;;;;;;;5054074;28;20819;-73
2024/01/03 06:39:51;;;;;;;55.50;1.60;;;;;;;;;;5054132;28;20460;-73
2024/01/03 06:42:18;;;;;;;55.40;1.70;;;;;;;;;;5053939;28;20461;-73
2024/01/03 06:44:46;;;;;;;55.07;1.67;;;;;;;;;;5054222;28;20501;-73
2024/01/03 06:47:13;;;;;;;55.50;1.83;;;;;;;;;;5054030;28;20449;-73
2024/01/03 06:49:40;;;;;;;55.30;1.77;;;;;;;;;;5054148;28;20474;-73
2024/01/03 06:52:07;;;;;;;55.27;1.80;;;;;;;;;;5047264;28;20554;-73
2024/01/03 06:54:36;;;;;;;55.07;1.60;;;;;;;;;;5054168;28;20453;-74
2024/01/03 06:57:05;;;;;;;55.30;1.80;;;;;;;;;;5054234;28;20450;-74
2024/01/03 06:59:35;;;;;;;54.73;1.60;;;;;;;;;;5054222;28;20453;-74
2024/01/03 07:02:03;;;;;;;54.67;1.60;;;;;;;;;;5054002;28;20454;-74
2024/01/03 07:04:30;;;;;;;55.37;1.80;;;;;;;;;;5053702;28;20496;-74
2024/01/03 07:06:57;;;;;;;55.47;1.90;;;;;;;;;;5053643;28;20722;-74
2024/01/03 07:09:24;;;;;;;55.50;1.70;;;;;;;;;;5051427;28;20457;-74
2024/01/03 07:11:51;;;;;;;55.57;1.77;;;;;;;;;;5053708;28;20503;-74
2024/01/03 07:14:20;;;;;;;55.27;1.90;;;;;;;;;;5053582;28;20462;-73
2024/01/03 07:16:47;;;;;;;55.50;2.57;;;;;;;;;;5053936;28;20464;-73
2024/01/03 07:19:14;;;;;;;54.57;1.80;;;;;;;;;;5053499;28;20450;-74
2024/01/03 07:21:41;;;;;;;54.87;1.67;;;;;;;;;;5053603;28;20457;-74
2024/01/03 07:24:10;;;;;;;55.40;1.97;;;;;;;;;;5053322;28;20549;-74
2024/01/03 07:26:37;;;;;;;54.83;2.10;;;;;;;;;;5053775;28;20546;-74
2024/01/03 07:29:04;;;;;;;55.37;2.03;;;;;;;;;;5053837;28;20450;-76
2024/01/03 07:31:32;;;;;;;55.60;1.80;;;;;;;;;;5054265;28;20759;-74
2024/01/03 07:34:00;;;;;;;55.23;1.83;;;;;;;;;;5052926;28;20461;-74
2024/01/03 07:36:27;;;;;;;55.47;2.00;;;;;;;;;;5053663;28;20448;-74
2024/01/03 07:38:57;;;;;;;55.60;1.80;;;;;;;;;;5053478;28;20457;-74
2024/01/03 07:41:25;;;;;;;55.33;2.00;;;;;;;;;;5053561;28;20817;-73
2024/01/03 07:43:52;;;;;;;55.27;1.80;;;;;;;;;;5053040;28;20518;-73
2024/01/03 07:46:19;;;;;;;55.20;1.80;;;;;;;;;;5053211;28;20450;-73
2024/01/03 07:48:47;;;;;;;55.40;1.80;;;;;;;;;;5053368;28;20442;-73
2024/01/03 07:51:18;;;;;;;55.20;1.90;;;;;;;;;;5053304;28;20499;-73
2024/01/03 07:53:45;;;;;;;55.30;1.97;;;;;;;;;;5053124;28;20466;-73
2024/01/03 07:56:13;;;;;;;54.87;1.60;;;;;;;;;;5052873;28;20466;-73
2024/01/03 07:58:40;;;;;;;55.27;1.50;;;;;;;;;;5053057;28;20448;-73
2024/01/03 08:01:07;;;;;;;55.37;2.13;;;;;;;;;;5052806;28;20456;-73
2024/01/03 08:03:34;;;;;;;55.37;1.90;;;;;;;;;;5052734;28;20680;-73
2024/01/03 08:06:02;;;;;;;55.50;1.70;;;;;;;;;;5047688;28;20452;-73
2024/01/03 08:08:29;;;;;;;55.20;1.80;;;;;;;;;;5044616;28;20451;-73
2024/01/03 08:10:56;;;;;;;55.50;2.10;;;;;;;;;;5043676;28;20442;-73
2024/01/03 08:13:24;;;;;;;55.30;2.07;;;;;;;;;;5046936;28;20849;-73
2024/01/03 08:15:51;;;;;;;55.30;1.70;;;;;;;;;;5048717;28;20458;-73
2024/01/03 08:18:18;;;;;;;55.47;1.93;;;;;;;;;;5062672;28;20950;-73
2024/01/03 08:20:45;;;;;;;55.50;1.80;;;;;;;;;;5063891;28;20480;-73
2024/01/03 08:23:13;;;;;;;55.60;1.93;;;;;;;;;;5061744;28;20480;-73
2024/01/03 08:25:40;;;;;;;55.47;1.70;;;;;;;;;;5062335;28;20499;-73
2024/01/03 08:28:07;;;;;;;55.33;2.00;;;;;;;;;;5054712;28;20448;-73
2024/01/03 08:30:34;;;;;;;55.40;2.00;;;;;;;;;;5052316;28;20448;-73
2024/01/03 08:33:01;;;;;;;55.47;1.80;;;;;;;;;;5051963;28;20999;-73
2024/01/03 08:35:28;;;;;;;55.27;1.80;;;;;;;;;;5052086;28;20454;-73
2024/01/03 08:37:56;;;;;;;55.73;2.30;;;;;;;;;;5047957;28;20458;-73
2024/01/03 08:40:24;;;;;;;55.43;1.70;;;;;;;;;;5051700;28;20964;-73
2024/01/03 08:42:51;;;;;;;55.60;1.80;;;;;;;;;;5051842;28;20471;-73
2024/01/03 08:45:18;;;;;;;54.53;1.60;;;;;;;;;;5051683;28;20592;-73
2024/01/03 08:47:46;;;;;;;55.60;1.87;;;;;;;;;;5052250;28;20454;-73
2024/01/03 08:50:14;;;;;;;55.60;1.90;;;;;;;;;;5051682;28;20821;-74
2024/01/03 08:52:42;;;;;;;55.27;1.70;;;;;;;;;;5051682;28;20477;-75
2024/01/03 08:55:09;;;;;;;55.37;1.70;;;;;;;;;;5051451;28;20962;-75
2024/01/03 08:57:37;;;;;;;54.87;1.70;;;;;;;;;;5051906;28;20457;-75
2024/01/03 09:00:05;;;;;;;55.40;1.50;;;;;;;;;;5051175;28;20466;-75
2024/01/03 09:02:32;;;;;;;55.60;1.70;;;;;;;;;;5051496;28;20476;-75
2024/01/03 09:04:59;;;;;;;56.47;3.17;;;;;;;;;;5051290;28;20490;-75
2024/01/03 09:07:26;;;;;;;55.33;1.70;;;;;;;;;;5051816;28;20454;-75
2024/01/03 09:09:53;;;;;;;55.20;1.60;;;;;;;;;;5051473;28;20454;-75
2024/01/03 09:12:22;;;;;;;55.40;1.43;;;;;;;;;;5052560;28;20442;-75
2024/01/03 09:14:50;;;;;;;55.53;1.80;;;;;;;;;;5052328;28;20454;-75
2024/01/03 09:17:17;;;;;;;55.67;1.80;;;;;;;;;;5052571;28;20490;-74
2024/01/03 09:19:45;;;;;;;55.07;1.50;;;;;;;;;;5052338;28;20466;-75
2024/01/03 09:22:12;;;;;;;55.07;1.73;;;;;;;;;;5052637;28;20459;-75
2024/01/03 09:24:39;;;;;;;55.17;1.50;;;;;;;;;;5052799;28;20488;-75
2024/01/03 09:27:06;;;;;;;55.07;1.53;;;;;;;;;;5053911;28;20447;-75
2024/01/03 09:29:33;;;;;;;55.43;1.57;;;;;;;;;;5053586;28;20463;-75
2024/01/03 09:32:02;;;;;;;55.50;1.80;;;;;;;;;;5052369;28;20525;-75
2024/01/03 09:34:29;;;;;;;55.40;1.87;;;;;;;;;;5051522;28;20970;-75
2024/01/03 09:36:56;;;;;;;55.10;1.70;;;;;;;;;;5052510;28;20455;-75
2024/01/03 09:39:23;;;;;;;55.43;1.90;;;;;;;;;;5042976;28;20458;-75
2024/01/03 09:41:50;;;;;;;55.37;1.60;;;;;;;;;;5050919;28;20454;-75
2024/01/03 09:44:18;;;;;;;55.27;1.57;;;;;;;;;;5050316;28;20501;-75
2024/01/03 09:46:48;;;;;;;55.13;1.40;;;;;;;;;;5050874;28;20454;-75
2024/01/03 09:49:18;;;;;;;55.40;1.47;;;;;;;;;;5050555;28;20470;-75
2024/01/03 09:51:46;;;;;;;54.97;1.60;;;;;;;;;;5051044;28;20459;-75
2024/01/03 09:54:14;;;;;;;55.30;1.73;;;;;;;;;;5050533;28;20476;-75
2024/01/03 09:56:42;;;;;;;55.33;1.70;;;;;;;;;;5050800;28;20452;-75
2024/01/03 09:59:09;;;;;;;55.63;2.00;;;;;;;;;;5050367;28;20462;-75
2024/01/03 10:01:37;;;;;;;55.40;1.70;;;;;;;;;;5050818;28;20815;-75
2024/01/03 10:04:06;;;;;;;55.30;1.70;;;;;;;;;;5050645;28;20822;-75
2024/01/03 10:06:51;;;;;;;55.40;1.80;;;;;;;;;;5051077;28;20483;-75
2024/01/03 10:09:18;;;;;;;55.30;1.73;;;;;;;;;;5050631;28;20454;-73
2024/01/03 10:11:46;;;;;;;55.47;1.77;;;;;;;;;;5050461;28;20464;-73
2024/01/03 10:14:17;;;;;;;55.27;1.70;;;;;;;;;;5050093;28;20477;-73
2024/01/03 10:16:44;;;;;;;55.27;1.80;;;;;;;;;;5050707;28;20459;-73
2024/01/03 10:19:12;;;;;;;55.40;1.57;;;;;;;;;;5050877;28;20458;-73
2024/01/03 10:21:47;;;;;;;55.27;1.93;;;;;;;;;;5050686;28;20975;-74
2024/01/03 10:24:14;;;;;;;55.07;1.87;;;;;;;;;;5050204;28;20488;-74
2024/01/03 10:26:42;;;;;;;55.03;1.83;;;;;;;;;;5050510;28;20458;-73
2024/01/03 10:29:09;;;;;;;54.97;1.67;;;;;;;;;;5050564;28;20455;-74
2024/01/03 10:31:36;;;;;;;55.17;1.53;;;;;;;;;;5050811;28;20454;-73
2024/01/03 10:34:04;;;;;;;55.43;1.80;;;;;;;;;;5050156;28;20823;-73
2024/01/03 10:36:32;;;;;;;55.37;1.63;;;;;;;;;;5050343;28;20935;-73
2024/01/03 10:39:01;;;;;;;55.40;1.80;;;;;;;;;;5050380;28;20957;-73
2024/01/03 10:41:30;;;;;;;55.17;1.90;;;;;;;;;;5050486;28;20517;-73
2024/01/03 10:43:57;;;;;;;55.07;2.00;;;;;;;;;;5050350;28;20472;-73
2024/01/03 10:46:25;;;;;;;55.27;1.80;;;;;;;;;;5052655;28;20498;-73
2024/01/03 10:48:52;;;;;;;55.37;1.70;;;;;;;;;;5054203;28;20451;-74
2024/01/03 10:51:21;;;;;;;55.60;1.70;;;;;;;;;;5054333;28;20824;-74
2024/01/03 10:53:48;;;;;;;55.60;1.70;;;;;;;;;;5053895;28;20468;-74
2024/01/03 10:56:17;;;;;;;54.77;1.90;;;;;;;;;;5054271;28;20459;-74
2024/01/03 10:58:44;;;;;;;55.60;1.70;;;;;;;;;;5049494;28;20459;-74
2024/01/03 11:01:14;;;;;;;55.27;1.70;;;;;;;;;;5049294;28;20462;-74
2024/01/03 11:03:43;;;;;;;55.50;1.67;;;;;;;;;;5053432;28;20481;-74
2024/01/03 11:06:18;;;;;;;55.13;1.50;;;;;;;;;;5053361;28;20483;-74
2024/01/03 11:08:48;;;;;;;55.57;1.70;;;;;;;;;;5053430;28;20460;-74
2024/01/03 11:11:29;;;;;;;55.03;1.60;;;;;;;;;;5047439;28;20819;-74
2024/01/03 11:13:57;;;;;;;54.87;1.70;;;;;;;;;;5053351;28;20484;-73
2024/01/03 11:16:35;;;;;;;55.37;1.60;;;;;;;;;;5053354;28;20541;-74
2024/01/03 11:19:02;;;;;;;55.40;1.70;;;;;;;;;;5053560;28;20445;-73
2024/01/03 11:21:39;;;;;;;55.67;1.80;;;;;;;;;;5044473;28;20516;-73
2024/01/03 11:24:21;;;;;;;55.30;1.80;;;;;;;;;;5049937;28;20553;-74
2024/01/03 11:27:04;;;;;;;55.20;1.70;;;;;;;;;;5053053;28;20553;-74
2024/01/03 11:29:44;;;;;;;55.50;1.70;;;;;;;;;;5053267;28;20481;-74
2024/01/03 11:32:12;;;;;;;55.50;1.70;;;;;;;;;;5053149;28;20478;-74
2024/01/03 11:34:39;;;;;;;54.90;1.50;;;;;;;;;;5053463;28;20455;-74
2024/01/03 11:37:08;;;;;;;55.43;1.60;;;;;;;;;;5053404;28;21271;-74
2024/01/03 11:39:36;;;;;;;55.23;1.60;;;;;;;;;;5052276;28;20828;-74
2024/01/03 11:42:05;;;;;;;55.70;1.70;;;;;;;;;;5053348;28;20444;-74
2024/01/03 11:44:32;;;;;;;55.60;1.90;;;;;;;;;;5053085;28;20452;-74
2024/01/03 11:46:59;;;;;;;55.37;1.80;;;;;;;;;;5053295;28;20455;-74
2024/01/03 11:49:27;;;;;;;55.07;1.80;;;;;;;;;;5053078;28;20843;-74
2024/01/03 11:51:54;;;;;;;55.60;2.00;;;;;;;;;;5052875;28;20931;-73
2024/01/03 11:54:21;;;;;;;55.40;1.70;;;;;;;;;;5052417;28;20474;-74
2024/01/03 11:56:48;;;;;;;55.50;1.90;;;;;;;;;;5052264;28;20512;-74
2024/01/03 11:59:21;;;;;;;55.37;1.83;;;;;;;;;;5050500;28;20464;-74
2024/01/03 12:01:56;;;;;;;55.33;1.77;;;;;;;;;;5049872;28;20467;-74
2024/01/03 12:04:23;;;;;;;55.60;1.57;;;;;;;;;;5052424;28;20475;-74
2024/01/03 12:06:50;;;;;;;55.60;2.00;;;;;;;;;;5052654;28;21101;-72
2024/01/03 12:09:18;;;;;;;55.40;1.70;;;;;;;;;;5052749;28;20459;-73
2024/01/03 12:11:46;;;;;;;55.80;1.80;;;;;;;;;;5052674;28;20455;-72
2024/01/03 12:14:18;;;;;;;55.50;1.90;;;;;;;;;;5052170;28;20475;-72
2024/01/03 12:16:48;;;;;;;55.17;1.70;;;;;;;;;;5052558;28;20462;-73
2024/01/03 12:19:22;;;;;;;55.37;1.80;;;;;;;;;;5052357;28;20490;-74
2024/01/03 12:21:56;;;;;;;55.07;1.80;;;;;;;;;;5052640;28;20446;-73
2024/01/03 12:24:23;;;;;;;55.70;2.00;;;;;;;;;;5052248;28;20472;-74
2024/01/03 12:26:50;;;;;;;55.17;1.80;;;;;;;;;;5052378;28;20479;-73
2024/01/03 12:29:21;;;;;;;55.33;2.00;;;;;;;;;;5052553;28;20945;-74
2024/01/03 12:31:48;;;;;;;66.50;2.20;;;;;;;;;;5052081;28;20454;-72
2024/01/03 12:34:19;;;;;;;54.70;1.80;;;;;;;;;;5051825;28;20477;-74
2024/01/03 12:36:49;;;;;;;55.50;1.90;;;;;;;;;;5052557;28;20450;-74
2024/01/03 12:39:16;;;;;;;55.57;1.60;;;;;;;;;;5052101;28;20447;-74
2024/01/03 12:41:45;;;;;;;55.30;1.80;;;;;;;;;;5052055;28;20457;-73
2024/01/03 12:44:12;;;;;;;55.40;1.73;;;;;;;;;;5051759;28;20467;-73
2024/01/03 12:46:41;;;;;;;55.27;1.50;;;;;;;;;;5052085;28;20487;-72
2024/01/03 12:49:08;;;;;;;55.30;1.90;;;;;;;;;;5051966;28;20459;-72
2024/01/03 12:51:35;;;;;;;55.27;1.70;;;;;;;;;;5051988;28;20803;-73
2024/01/03 12:54:02;;;;;;;55.30;1.90;;;;;;;;;;5051572;28;20473;-73
2024/01/03 12:56:30;;;;;;;55.87;1.90;;;;;;;;;;5051665;28;20444;-73
2024/01/03 12:58:57;;;;;;;55.33;2.00;;;;;;;;;;5052121;28;20459;-73
2024/01/03 13:01:24;;;;;;;55.57;1.63;;;;;;;;;;5051654;28;20463;-73
2024/01/03 13:03:52;;;;;;;55.53;1.90;;;;;;;;;;5051424;28;21001;-73
2024/01/03 13:06:19;;;;;;;55.97;1.83;;;;;;;;;;5051425;28;20497;-74
2024/01/03 13:08:47;;;;;;;55.77;1.87;;;;;;;;;;5051510;28;20449;-73
2024/01/03 13:11:14;;;;;;;55.90;2.00;;;;;;;;;;5051939;28;20450;-73
2024/01/03 13:13:41;;;;;;;55.90;2.03;;;;;;;;;;5051423;28;20470;-73
2024/01/03 13:16:08;;;;;;;55.70;1.90;;;;;;;;;;5051277;28;20471;-73
2024/01/03 13:18:36;;;;;;;55.97;2.00;;;;;;;;;;5043685;28;20447;-74
2024/01/03 13:21:04;;;;;;;56.00;2.00;;;;;;;;;;5051569;28;20507;-74
2024/01/03 13:23:32;;;;;;;55.80;1.80;;;;;;;;;;5051368;28;20857;-73
2024/01/03 13:25:59;;;;;;;55.73;1.70;;;;;;;;;;5050901;28;20484;-73
2024/01/03 13:28:26;;;;;;;56.10;2.00;;;;;;;;;;5051607;28;20821;-73
2024/01/03 13:30:53;;;;;;;55.83;2.20;;;;;;;;;;5051696;28;20456;-73
2024/01/03 13:33:20;;;;;;;55.70;1.83;;;;;;;;;;5051317;28;20469;-73
2024/01/03 13:35:48;;;;;;;55.60;1.80;;;;;;;;;;5051001;28;20476;-73
2024/01/03 13:38:16;;;;;;;55.53;1.83;;;;;;;;;;5051003;28;20455;-73
2024/01/03 13:40:46;;;;;;;56.10;2.07;;;;;;;;;;5051434;28;20458;-73
2024/01/03 13:43:13;;;;;;;55.73;2.10;;;;;;;;;;5051127;28;20476;-74
2024/01/03 13:45:41;;;;;;;55.87;2.07;;;;;;;;;;5050972;28;20486;-73
2024/01/03 13:48:09;;;;;;;55.97;1.87;;;;;;;;;;5051203;28;20931;-73
2024/01/03 13:50:36;;;;;;;55.90;2.07;;;;;;;;;;5050977;28;20451;-74
2024/01/03 13:53:06;;;;;;;55.97;2.07;;;;;;;;;;5050715;28;20470;-74
2024/01/03 13:55:34;;;;;;;55.47;1.90;;;;;;;;;;5050783;28;20542;-74
2024/01/03 13:58:01;;;;;;;55.53;1.90;;;;;;;;;;5051068;28;20446;-73
2024/01/03 14:00:28;;;;;;;55.37;1.80;;;;;;;;;;5051303;28;20449;-74
2024/01/03 14:02:55;;;;;;;55.90;1.83;;;;;;;;;;5050816;28;20878;-74
2024/01/03 14:05:24;;;;;;;55.20;2.00;;;;;;;;;;5050534;28;20454;-74
2024/01/03 14:07:51;;;;;;;55.47;1.90;;;;;;;;;;5051126;28;20454;-74
2024/01/03 14:10:18;;;;;;;55.90;2.03;;;;;;;;;;5050785;28;20978;-75
2024/01/03 14:12:46;;;;;;;55.67;1.80;;;;;;;;;;5050620;28;20473;-75
2024/01/03 14:15:13;;;;;;;55.57;2.30;;;;;;;;;;5050653;28;20823;-74
2024/01/03 14:17:40;;;;;;;55.47;1.90;;;;;;;;;;5050710;28;20461;-75
2024/01/03 14:20:12;;;;;;;55.37;1.67;;;;;;;;;;5051023;28;20455;-75
2024/01/03 14:22:39;;;;;;;55.87;1.77;;;;;;;;;;5046963;28;20478;-75
2024/01/03 14:25:07;;;;;;;55.60;1.80;;;;;;;;;;5054807;28;20447;-74
2024/01/03 14:27:34;;;;;;;55.90;1.90;;;;;;;;;;5054633;28;20504;-74
2024/01/03 14:30:05;;;;;;;56.00;1.83;;;;;;;;;;5054550;28;20970;-74
2024/01/03 14:32:32;;;;;;;55.73;1.90;;;;;;;;;;5054218;28;21061;-74
2024/01/03 14:34:59;;;;;;;55.60;1.73;;;;;;;;;;5054631;28;20452;-74